FMMI Airport Information

Runway Information
Runway 11 Length 10171 ft width 148 ft
Elevation 4197 ft Threshold 0 ft Heading 99
Runway 29 Length 10171 ft Width 148 ft
Elevation 4117 ft Threshold 0 ft Heading 279
Airport Frequencies
Type TWR Name TWR Frequency 120.1 MHZ
Airport Navaids
Type VOR-DME Name Ivato Frequency 114500 KHZ
Airport Weather Information & NOTAM
ADDS - METARS form results

(1058 UTC 23 May 2019)
Data provider http://aviationweather.gov/metar/data/
 
METAR text: FMMI 231030Z VRB04KT 9999 BKN020 27/13 Q1020 NOSIG
Conditions at: FMMI (ANTANANARIVO/IVA, KM) observed 1030 UTC 23 May 2019
Temperature: 27.0°C (81°F)
Dewpoint: 13.0°C (55°F) [RH = 42%]
Pressure (altimeter): 30.12 inches Hg (1020.0 mb)
Winds: variable direction winds at 5 MPH (4 knots; 2.1 m/s)
Visibility: 6 or more miles (10+ km)
Ceiling: 2000 feet AGL
Clouds: broken clouds at 2000 feet AGL
Weather: no significant weather observed at this time

METAR text: FMMI 231000Z 17004KT 100V220 9999 BKN020 26/16 Q1021 NOSIG
Conditions at: FMMI (ANTANANARIVO/IVA, KM) observed 1000 UTC 23 May 2019
Temperature: 26.0°C (79°F)
Dewpoint: 16.0°C (61°F) [RH = 54%]
Pressure (altimeter): 30.15 inches Hg (1021.0 mb)
Winds: from the S (170 degrees) at 5 MPH (4 knots; 2.1 m/s)
Visibility: 6 or more miles (10+ km)
Ceiling: 2000 feet AGL
Clouds: broken clouds at 2000 feet AGL
Weather: no significant weather observed at this time

Forecast for: FMMI (ANTANANARIVO/IVA, KM)
Text: TAF FMMI 230500Z 2306/2412 VRB04KT 9999 FEW017 SCT020
Forecast period: 0600 UTC 23 May 2019 to 1200 UTC 24 May 2019
Forecast type: FROM: standard forecast or significant change
Winds: variable direction winds at 5 MPH (4 knots; 2.1 m/s)
Visibility: 6 or more miles 10+ km)
Ceiling: at least 12,000 feet AGL
Clouds: few clouds at 1700 feet AGL
scattered clouds at 2000 feet AGL
Weather: no significant weather forecast for this period
Text: PROB40 2401/2405 0800 FG BKN004
Forecast period: 0100 to 0500 UTC 24 May 2019
Forecast type: PROBABLE: 40 percent likelihood of the following during this time
Visibility: 0.50 miles (0.80 km)
Ceiling: 400 feet AGL
Clouds: broken clouds at 400 feet AGL
Weather: FG  (fog)